sensor_id;sensor_type;location;lat;lon;timestamp;P1;durP1;ratioP1;P2;durP2;ratioP2
22829;SDS011;11581;51.250;6.778;2023-05-10T00:01:55;6.80;;;5.65;;
22829;SDS011;11581;51.250;6.778;2023-05-10T00:04:22;7.07;;;5.80;;
22829;SDS011;11581;51.250;6.778;2023-05-10T00:06:52;6.30;;;4.90;;
22829;SDS011;11581;51.250;6.778;2023-05-10T00:09:19;6.82;;;5.55;;
22829;SDS011;11581;51.250;6.778;2023-05-10T00:11:45;6.82;;;5.75;;
22829;SDS011;11581;51.250;6.778;2023-05-10T00:14:12;6.95;;;5.78;;
22829;SDS011;11581;51.250;6.778;2023-05-10T00:16:38;7.50;;;5.88;;
22829;SDS011;11581;51.250;6.778;2023-05-10T00:19:04;7.65;;;6.20;;
22829;SDS011;11581;51.250;6.778;2023-05-10T00:21:31;7.43;;;6.20;;
22829;SDS011;11581;51.250;6.778;2023-05-10T00:23:58;8.05;;;5.60;;
22829;SDS011;11581;51.250;6.778;2023-05-10T00:26:25;7.50;;;6.00;;
22829;SDS011;11581;51.250;6.778;2023-05-10T00:28:54;7.57;;;6.13;;
22829;SDS011;11581;51.250;6.778;2023-05-10T00:31:20;7.57;;;5.95;;
22829;SDS011;11581;51.250;6.778;2023-05-10T00:33:47;6.78;;;5.80;;
22829;SDS011;11581;51.250;6.778;2023-05-10T00:36:13;7.13;;;6.15;;
22829;SDS011;11581;51.250;6.778;2023-05-10T00:38:40;7.70;;;5.88;;
22829;SDS011;11581;51.250;6.778;2023-05-10T00:41:06;9.00;;;6.50;;
22829;SDS011;11581;51.250;6.778;2023-05-10T00:43:34;6.95;;;5.90;;
22829;SDS011;11581;51.250;6.778;2023-05-10T00:46:03;8.30;;;5.63;;
22829;SDS011;11581;51.250;6.778;2023-05-10T00:48:31;7.55;;;5.82;;
22829;SDS011;11581;51.250;6.778;2023-05-10T00:50:57;11.30;;;6.35;;
22829;SDS011;11581;51.250;6.778;2023-05-10T00:53:24;6.82;;;5.47;;
22829;SDS011;11581;51.250;6.778;2023-05-10T00:55:51;7.03;;;5.57;;
22829;SDS011;11581;51.250;6.778;2023-05-10T00:58:17;6.68;;;4.97;;
22829;SDS011;11581;51.250;6.778;2023-05-10T01:00:44;7.10;;;5.40;;
22829;SDS011;11581;51.250;6.778;2023-05-10T01:03:12;7.88;;;5.80;;
22829;SDS011;11581;51.250;6.778;2023-05-10T01:05:39;8.27;;;5.40;;
22829;SDS011;11581;51.250;6.778;2023-05-10T01:08:06;5.55;;;4.60;;
22829;SDS011;11581;51.250;6.778;2023-05-10T01:10:33;7.10;;;5.18;;
22829;SDS011;11581;51.250;6.778;2023-05-10T01:13:30;5.97;;;4.90;;
22829;SDS011;11581;51.250;6.778;2023-05-10T01:15:57;5.45;;;4.40;;
22829;SDS011;11581;51.250;6.778;2023-05-10T01:18:26;6.18;;;4.93;;
22829;SDS011;11581;51.250;6.778;2023-05-10T01:32:17;5.65;;;4.43;;
22829;SDS011;11581;51.250;6.778;2023-05-10T01:37:21;7.18;;;4.88;;
22829;SDS011;11581;51.250;6.778;2023-05-10T01:39:58;6.28;;;4.60;;
22829;SDS011;11581;51.250;6.778;2023-05-10T01:42:32;6.20;;;4.53;;
22829;SDS011;11581;51.250;6.778;2023-05-10T01:45:07;6.25;;;4.63;;
22829;SDS011;11581;51.250;6.778;2023-05-10T01:47:43;7.05;;;4.90;;
22829;SDS011;11581;51.250;6.778;2023-05-10T01:50:17;6.93;;;5.13;;
22829;SDS011;11581;51.250;6.778;2023-05-10T01:52:53;6.55;;;5.00;;
22829;SDS011;11581;51.250;6.778;2023-05-10T01:55:21;6.57;;;5.22;;
22829;SDS011;11581;51.250;6.778;2023-05-10T01:57:52;6.85;;;5.45;;
22829;SDS011;11581;51.250;6.778;2023-05-10T02:00:26;7.30;;;5.45;;
22829;SDS011;11581;51.250;6.778;2023-05-10T02:02:54;9.13;;;5.57;;
22829;SDS011;11581;51.250;6.778;2023-05-10T02:05:22;8.00;;;5.85;;
22829;SDS011;11581;51.250;6.778;2023-05-10T02:07:50;5.70;;;4.82;;
22829;SDS011;11581;51.250;6.778;2023-05-10T02:10:18;9.52;;;6.25;;
22829;SDS011;11581;51.250;6.778;2023-05-10T02:12:46;7.85;;;5.78;;
22829;SDS011;11581;51.250;6.778;2023-05-10T02:15:15;7.07;;;5.78;;
22829;SDS011;11581;51.250;6.778;2023-05-10T02:17:46;8.45;;;5.60;;
22829;SDS011;11581;51.250;6.778;2023-05-10T02:20:13;6.28;;;5.05;;
22829;SDS011;11581;51.250;6.778;2023-05-10T02:22:42;7.30;;;5.53;;
22829;SDS011;11581;51.250;6.778;2023-05-10T02:25:12;8.10;;;5.53;;
22829;SDS011;11581;51.250;6.778;2023-05-10T02:27:41;6.80;;;5.55;;
22829;SDS011;11581;51.250;6.778;2023-05-10T02:30:09;8.18;;;5.20;;
22829;SDS011;11581;51.250;6.778;2023-05-10T02:32:36;6.68;;;5.03;;
22829;SDS011;11581;51.250;6.778;2023-05-10T02:35:04;6.30;;;5.35;;
22829;SDS011;11581;51.250;6.778;2023-05-10T02:37:32;6.82;;;5.00;;
22829;SDS011;11581;51.250;6.778;2023-05-10T02:40:01;6.03;;;4.82;;
22829;SDS011;11581;51.250;6.778;2023-05-10T02:42:30;7.05;;;5.10;;
22829;SDS011;11581;51.250;6.778;2023-05-10T02:45:00;7.40;;;5.25;;
22829;SDS011;11581;51.250;6.778;2023-05-10T02:47:28;5.47;;;4.53;;
22829;SDS011;11581;51.250;6.778;2023-05-10T02:49:55;6.22;;;4.68;;
22829;SDS011;11581;51.250;6.778;2023-05-10T02:52:23;5.53;;;4.28;;
22829;SDS011;11581;51.250;6.778;2023-05-10T02:54:55;6.00;;;4.40;;
22829;SDS011;11581;51.250;6.778;2023-05-10T02:57:28;6.88;;;4.35;;
22829;SDS011;11581;51.250;6.778;2023-05-10T03:00:01;5.60;;;4.22;;
22829;SDS011;11581;51.250;6.778;2023-05-10T03:02:28;7.68;;;4.78;;
22829;SDS011;11581;51.250;6.778;2023-05-10T03:04:56;7.75;;;4.75;;
22829;SDS011;11581;51.250;6.778;2023-05-10T03:07:22;5.60;;;4.15;;
22829;SDS011;11581;51.250;6.778;2023-05-10T03:09:49;5.72;;;4.60;;
22829;SDS011;11581;51.250;6.778;2023-05-10T03:20:04;6.13;;;4.45;;
22829;SDS011;11581;51.250;6.778;2023-05-10T03:22:37;8.48;;;4.53;;
22829;SDS011;11581;51.250;6.778;2023-05-10T03:25:08;7.07;;;4.70;;
22829;SDS011;11581;51.250;6.778;2023-05-10T03:27:39;6.05;;;4.95;;
22829;SDS011;11581;51.250;6.778;2023-05-10T03:30:10;7.25;;;4.60;;
22829;SDS011;11581;51.250;6.778;2023-05-10T03:32:38;5.00;;;4.30;;
22829;SDS011;11581;51.250;6.778;2023-05-10T03:35:09;7.78;;;5.07;;
22829;SDS011;11581;51.250;6.778;2023-05-10T03:37:36;7.65;;;4.45;;
22829;SDS011;11581;51.250;6.778;2023-05-10T03:40:04;6.30;;;4.65;;
22829;SDS011;11581;51.250;6.778;2023-05-10T03:42:33;7.45;;;4.90;;
22829;SDS011;11581;51.250;6.778;2023-05-10T03:44:59;7.50;;;5.50;;
22829;SDS011;11581;51.250;6.778;2023-05-10T03:47:26;6.93;;;4.93;;
22829;SDS011;11581;51.250;6.778;2023-05-10T03:49:52;7.53;;;4.95;;
22829;SDS011;11581;51.250;6.778;2023-05-10T03:52:19;7.13;;;5.10;;
22829;SDS011;11581;51.250;6.778;2023-05-10T03:54:46;7.43;;;5.57;;
22829;SDS011;11581;51.250;6.778;2023-05-10T03:57:13;9.25;;;5.65;;
22829;SDS011;11581;51.250;6.778;2023-05-10T03:59:39;9.18;;;5.70;;
22829;SDS011;11581;51.250;6.778;2023-05-10T04:02:06;8.63;;;5.57;;
22829;SDS011;11581;51.250;6.778;2023-05-10T04:04:32;8.68;;;6.05;;
22829;SDS011;11581;51.250;6.778;2023-05-10T04:06:59;9.38;;;6.45;;
22829;SDS011;11581;51.250;6.778;2023-05-10T04:09:25;7.80;;;6.00;;
22829;SDS011;11581;51.250;6.778;2023-05-10T04:11:51;10.57;;;6.53;;
22829;SDS011;11581;51.250;6.778;2023-05-10T04:14:18;8.68;;;6.55;;
22829;SDS011;11581;51.250;6.778;2023-05-10T04:16:44;10.55;;;6.78;;
22829;SDS011;11581;51.250;6.778;2023-05-10T04:19:11;8.35;;;6.15;;
22829;SDS011;11581;51.250;6.778;2023-05-10T04:21:37;8.10;;;6.00;;
22829;SDS011;11581;51.250;6.778;2023-05-10T04:24:04;14.55;;;7.20;;
22829;SDS011;11581;51.250;6.778;2023-05-10T04:26:30;10.70;;;8.13;;
22829;SDS011;11581;51.250;6.778;2023-05-10T04:28:57;10.73;;;7.95;;
22829;SDS011;11581;51.250;6.778;2023-05-10T04:31:23;12.63;;;8.00;;
22829;SDS011;11581;51.250;6.778;2023-05-10T04:33:51;12.00;;;8.65;;
22829;SDS011;11581;51.250;6.778;2023-05-10T04:36:17;13.63;;;9.15;;
22829;SDS011;11581;51.250;6.778;2023-05-10T04:38:43;12.43;;;9.20;;
22829;SDS011;11581;51.250;6.778;2023-05-10T04:41:10;16.90;;;9.52;;
22829;SDS011;11581;51.250;6.778;2023-05-10T04:43:37;12.07;;;8.95;;
22829;SDS011;11581;51.250;6.778;2023-05-10T04:46:04;16.58;;;10.07;;
22829;SDS011;11581;51.250;6.778;2023-05-10T04:48:33;14.60;;;10.10;;
22829;SDS011;11581;51.250;6.778;2023-05-10T04:50:59;14.15;;;8.93;;
22829;SDS011;11581;51.250;6.778;2023-05-10T04:53:26;14.05;;;9.57;;
22829;SDS011;11581;51.250;6.778;2023-05-10T04:55:52;13.02;;;9.73;;
22829;SDS011;11581;51.250;6.778;2023-05-10T04:58:19;12.48;;;8.85;;
22829;SDS011;11581;51.250;6.778;2023-05-10T05:00:45;14.63;;;10.05;;
22829;SDS011;11581;51.250;6.778;2023-05-10T05:03:11;17.58;;;10.05;;
22829;SDS011;11581;51.250;6.778;2023-05-10T05:05:38;14.75;;;10.18;;
22829;SDS011;11581;51.250;6.778;2023-05-10T05:08:04;13.07;;;9.52;;
22829;SDS011;11581;51.250;6.778;2023-05-10T05:10:31;12.80;;;9.63;;
22829;SDS011;11581;51.250;6.778;2023-05-10T05:12:57;15.73;;;10.80;;
22829;SDS011;11581;51.250;6.778;2023-05-10T05:15:24;15.88;;;9.68;;
22829;SDS011;11581;51.250;6.778;2023-05-10T05:17:50;12.80;;;9.75;;
22829;SDS011;11581;51.250;6.778;2023-05-10T05:20:17;13.13;;;9.20;;
22829;SDS011;11581;51.250;6.778;2023-05-10T05:22:44;14.75;;;9.80;;
22829;SDS011;11581;51.250;6.778;2023-05-10T05:25:10;14.02;;;9.90;;
22829;SDS011;11581;51.250;6.778;2023-05-10T05:27:37;13.27;;;8.57;;
22829;SDS011;11581;51.250;6.778;2023-05-10T05:30:04;13.38;;;9.00;;
22829;SDS011;11581;51.250;6.778;2023-05-10T05:32:31;13.38;;;8.77;;
22829;SDS011;11581;51.250;6.778;2023-05-10T05:34:57;12.95;;;8.88;;
22829;SDS011;11581;51.250;6.778;2023-05-10T05:37:24;12.52;;;8.32;;
22829;SDS011;11581;51.250;6.778;2023-05-10T05:39:50;14.18;;;8.07;;
22829;SDS011;11581;51.250;6.778;2023-05-10T05:42:17;11.95;;;7.47;;
22829;SDS011;11581;51.250;6.778;2023-05-10T05:44:43;12.30;;;7.45;;
22829;SDS011;11581;51.250;6.778;2023-05-10T05:47:10;11.85;;;7.47;;
22829;SDS011;11581;51.250;6.778;2023-05-10T05:49:37;9.63;;;7.40;;
22829;SDS011;11581;51.250;6.778;2023-05-10T05:52:04;13.93;;;7.20;;
22829;SDS011;11581;51.250;6.778;2023-05-10T05:54:30;9.70;;;6.75;;
22829;SDS011;11581;51.250;6.778;2023-05-10T05:56:57;9.05;;;7.32;;
22829;SDS011;11581;51.250;6.778;2023-05-10T05:59:25;12.23;;;6.85;;
22829;SDS011;11581;51.250;6.778;2023-05-10T06:01:51;13.50;;;7.38;;
22829;SDS011;11581;51.250;6.778;2023-05-10T06:04:18;10.95;;;7.28;;
22829;SDS011;11581;51.250;6.778;2023-05-10T06:06:45;15.60;;;7.82;;
22829;SDS011;11581;51.250;6.778;2023-05-10T06:09:11;13.73;;;7.60;;
22829;SDS011;11581;51.250;6.778;2023-05-10T06:11:38;12.23;;;7.35;;
22829;SDS011;11581;51.250;6.778;2023-05-10T06:14:05;12.07;;;6.68;;
22829;SDS011;11581;51.250;6.778;2023-05-10T06:16:33;10.88;;;6.82;;
22829;SDS011;11581;51.250;6.778;2023-05-10T06:19:00;14.30;;;7.88;;
22829;SDS011;11581;51.250;6.778;2023-05-10T06:21:27;14.68;;;7.93;;
22829;SDS011;11581;51.250;6.778;2023-05-10T06:23:53;12.50;;;7.85;;
22829;SDS011;11581;51.250;6.778;2023-05-10T06:26:20;14.45;;;8.00;;
22829;SDS011;11581;51.250;6.778;2023-05-10T06:28:46;14.15;;;8.38;;
22829;SDS011;11581;51.250;6.778;2023-05-10T06:31:13;14.15;;;8.93;;
22829;SDS011;11581;51.250;6.778;2023-05-10T06:33:39;14.10;;;9.40;;
22829;SDS011;11581;51.250;6.778;2023-05-10T06:36:06;17.05;;;9.88;;
22829;SDS011;11581;51.250;6.778;2023-05-10T06:38:32;15.10;;;9.07;;
22829;SDS011;11581;51.250;6.778;2023-05-10T06:40:59;13.07;;;9.10;;
22829;SDS011;11581;51.250;6.778;2023-05-10T06:43:25;14.73;;;9.25;;
22829;SDS011;11581;51.250;6.778;2023-05-10T06:45:53;13.73;;;8.45;;
22829;SDS011;11581;51.250;6.778;2023-05-10T06:48:20;12.55;;;8.02;;
22829;SDS011;11581;51.250;6.778;2023-05-10T06:50:46;15.25;;;8.30;;
22829;SDS011;11581;51.250;6.778;2023-05-10T06:53:13;14.52;;;8.93;;
22829;SDS011;11581;51.250;6.778;2023-05-10T06:55:39;11.50;;;8.18;;
22829;SDS011;11581;51.250;6.778;2023-05-10T06:58:06;13.30;;;9.02;;
22829;SDS011;11581;51.250;6.778;2023-05-10T07:00:32;14.05;;;9.00;;
22829;SDS011;11581;51.250;6.778;2023-05-10T07:02:59;15.00;;;9.23;;
22829;SDS011;11581;51.250;6.778;2023-05-10T07:05:25;19.70;;;9.63;;
22829;SDS011;11581;51.250;6.778;2023-05-10T07:07:52;15.15;;;9.32;;
22829;SDS011;11581;51.250;6.778;2023-05-10T07:10:19;16.05;;;9.63;;
22829;SDS011;11581;51.250;6.778;2023-05-10T07:12:45;18.63;;;10.63;;
22829;SDS011;11581;51.250;6.778;2023-05-10T07:15:12;17.38;;;9.65;;
22829;SDS011;11581;51.250;6.778;2023-05-10T07:17:38;18.25;;;10.20;;
22829;SDS011;11581;51.250;6.778;2023-05-10T07:20:05;18.52;;;9.77;;
22829;SDS011;11581;51.250;6.778;2023-05-10T07:22:33;13.60;;;9.10;;
22829;SDS011;11581;51.250;6.778;2023-05-10T07:24:59;15.35;;;8.57;;
22829;SDS011;11581;51.250;6.778;2023-05-10T07:27:26;17.98;;;8.80;;
22829;SDS011;11581;51.250;6.778;2023-05-10T07:29:52;15.82;;;8.75;;
22829;SDS011;11581;51.250;6.778;2023-05-10T07:32:19;12.80;;;8.68;;
22829;SDS011;11581;51.250;6.778;2023-05-10T07:34:46;11.75;;;7.75;;
22829;SDS011;11581;51.250;6.778;2023-05-10T07:37:12;13.77;;;7.97;;
22829;SDS011;11581;51.250;6.778;2023-05-10T07:39:39;11.85;;;6.93;;
22829;SDS011;11581;51.250;6.778;2023-05-10T07:42:05;12.98;;;7.40;;
22829;SDS011;11581;51.250;6.778;2023-05-10T07:44:32;12.45;;;7.10;;
22829;SDS011;11581;51.250;6.778;2023-05-10T07:46:58;14.30;;;7.32;;
22829;SDS011;11581;51.250;6.778;2023-05-10T07:49:25;11.57;;;7.15;;
22829;SDS011;11581;51.250;6.778;2023-05-10T07:51:51;11.52;;;6.88;;
22829;SDS011;11581;51.250;6.778;2023-05-10T07:54:18;13.35;;;8.20;;
22829;SDS011;11581;51.250;6.778;2023-05-10T07:56:44;14.95;;;8.82;;
22829;SDS011;11581;51.250;6.778;2023-05-10T07:59:16;14.90;;;9.50;;
22829;SDS011;11581;51.250;6.778;2023-05-10T08:01:43;18.92;;;11.13;;
22829;SDS011;11581;51.250;6.778;2023-05-10T08:04:10;18.88;;;12.02;;
22829;SDS011;11581;51.250;6.778;2023-05-10T08:06:37;19.65;;;12.45;;
22829;SDS011;11581;51.250;6.778;2023-05-10T08:09:04;23.50;;;14.18;;
22829;SDS011;11581;51.250;6.778;2023-05-10T08:11:30;24.55;;;14.60;;
22829;SDS011;11581;51.250;6.778;2023-05-10T08:13:57;24.08;;;13.55;;
22829;SDS011;11581;51.250;6.778;2023-05-10T08:16:23;23.98;;;14.23;;
22829;SDS011;11581;51.250;6.778;2023-05-10T08:18:49;21.58;;;14.38;;
22829;SDS011;11581;51.250;6.778;2023-05-10T08:21:16;21.10;;;13.98;;
22829;SDS011;11581;51.250;6.778;2023-05-10T08:23:43;20.15;;;13.07;;
22829;SDS011;11581;51.250;6.778;2023-05-10T08:26:09;20.05;;;14.13;;
22829;SDS011;11581;51.250;6.778;2023-05-10T08:28:36;25.45;;;16.08;;
22829;SDS011;11581;51.250;6.778;2023-05-10T08:31:02;21.88;;;15.18;;
22829;SDS011;11581;51.250;6.778;2023-05-10T08:33:29;21.08;;;14.98;;
22829;SDS011;11581;51.250;6.778;2023-05-10T08:35:55;21.42;;;14.75;;
22829;SDS011;11581;51.250;6.778;2023-05-10T08:38:21;23.63;;;15.52;;
22829;SDS011;11581;51.250;6.778;2023-05-10T08:40:48;24.27;;;15.88;;
22829;SDS011;11581;51.250;6.778;2023-05-10T08:43:20;25.05;;;14.93;;
22829;SDS011;11581;51.250;6.778;2023-05-10T08:45:46;23.73;;;14.65;;
22829;SDS011;11581;51.250;6.778;2023-05-10T08:48:15;23.60;;;13.85;;
22829;SDS011;11581;51.250;6.778;2023-05-10T08:50:44;25.52;;;14.57;;
22829;SDS011;11581;51.250;6.778;2023-05-10T08:53:11;27.08;;;14.43;;
22829;SDS011;11581;51.250;6.778;2023-05-10T08:55:39;18.92;;;13.27;;
22829;SDS011;11581;51.250;6.778;2023-05-10T08:58:07;19.67;;;14.02;;
22829;SDS011;11581;51.250;6.778;2023-05-10T09:00:35;16.35;;;11.40;;
22829;SDS011;11581;51.250;6.778;2023-05-10T09:03:03;16.13;;;11.30;;
22829;SDS011;11581;51.250;6.778;2023-05-10T09:05:30;18.65;;;11.02;;
22829;SDS011;11581;51.250;6.778;2023-05-10T09:07:57;17.25;;;10.77;;
22829;SDS011;11581;51.250;6.778;2023-05-10T09:10:25;16.30;;;10.18;;
22829;SDS011;11581;51.250;6.778;2023-05-10T09:12:53;14.15;;;10.13;;
22829;SDS011;11581;51.250;6.778;2023-05-10T09:15:22;18.80;;;9.98;;
22829;SDS011;11581;51.250;6.778;2023-05-10T09:20:24;14.40;;;9.00;;
22829;SDS011;11581;51.250;6.778;2023-05-10T09:22:51;16.55;;;8.75;;
22829;SDS011;11581;51.250;6.778;2023-05-10T09:25:17;12.65;;;7.60;;
22829;SDS011;11581;51.250;6.778;2023-05-10T09:27:44;11.75;;;7.75;;
22829;SDS011;11581;51.250;6.778;2023-05-10T09:30:23;9.50;;;6.75;;
22829;SDS011;11581;51.250;6.778;2023-05-10T09:32:50;10.45;;;6.93;;
22829;SDS011;11581;51.250;6.778;2023-05-10T09:35:20;12.73;;;7.95;;
22829;SDS011;11581;51.250;6.778;2023-05-10T09:37:51;9.90;;;8.05;;
22829;SDS011;11581;51.250;6.778;2023-05-10T09:40:20;10.93;;;6.97;;
22829;SDS011;11581;51.250;6.778;2023-05-10T09:45:20;12.52;;;7.53;;
22829;SDS011;11581;51.250;6.778;2023-05-10T09:47:47;10.80;;;6.75;;
22829;SDS011;11581;51.250;6.778;2023-05-10T09:50:14;9.82;;;6.90;;
22829;SDS011;11581;51.250;6.778;2023-05-10T09:52:56;8.45;;;6.22;;
22829;SDS011;11581;51.250;6.778;2023-05-10T09:55:46;20.55;;;6.70;;
22829;SDS011;11581;51.250;6.778;2023-05-10T09:58:14;7.60;;;5.43;;
22829;SDS011;11581;51.250;6.778;2023-05-10T10:00:42;8.80;;;5.97;;
22829;SDS011;11581;51.250;6.778;2023-05-10T10:03:16;8.73;;;5.28;;
22829;SDS011;11581;51.250;6.778;2023-05-10T10:05:44;12.18;;;5.72;;
22829;SDS011;11581;51.250;6.778;2023-05-10T10:08:12;9.48;;;5.82;;
22829;SDS011;11581;51.250;6.778;2023-05-10T10:10:40;10.23;;;6.10;;
22829;SDS011;11581;51.250;6.778;2023-05-10T10:13:07;13.52;;;6.88;;
22829;SDS011;11581;51.250;6.778;2023-05-10T10:15:34;9.25;;;5.97;;
22829;SDS011;11581;51.250;6.778;2023-05-10T10:18:01;9.00;;;5.88;;
22829;SDS011;11581;51.250;6.778;2023-05-10T10:20:29;9.60;;;6.82;;
22829;SDS011;11581;51.250;6.778;2023-05-10T10:22:55;11.20;;;7.30;;
22829;SDS011;11581;51.250;6.778;2023-05-10T10:25:22;11.98;;;7.40;;
22829;SDS011;11581;51.250;6.778;2023-05-10T10:27:56;10.15;;;6.05;;
22829;SDS011;11581;51.250;6.778;2023-05-10T10:36:31;8.98;;;6.47;;
22829;SDS011;11581;51.250;6.778;2023-05-10T10:39:02;9.57;;;6.75;;
22829;SDS011;11581;51.250;6.778;2023-05-10T10:41:36;10.88;;;6.43;;
22829;SDS011;11581;51.250;6.778;2023-05-10T11:07:55;7.65;;;6.15;;
22829;SDS011;11581;51.250;6.778;2023-05-10T11:10:24;11.95;;;6.55;;
22829;SDS011;11581;51.250;6.778;2023-05-10T11:15:37;10.63;;;7.57;;
22829;SDS011;11581;51.250;6.778;2023-05-10T11:18:22;10.70;;;8.43;;
22829;SDS011;11581;51.250;6.778;2023-05-10T11:20:57;11.18;;;7.68;;
22829;SDS011;11581;51.250;6.778;2023-05-10T11:23:30;10.98;;;7.63;;
22829;SDS011;11581;51.250;6.778;2023-05-10T11:25:58;12.70;;;8.68;;
22829;SDS011;11581;51.250;6.778;2023-05-10T11:28:26;11.20;;;8.38;;
22829;SDS011;11581;51.250;6.778;2023-05-10T11:30:53;12.68;;;8.27;;
22829;SDS011;11581;51.250;6.778;2023-05-10T11:33:20;11.65;;;8.30;;
22829;SDS011;11581;51.250;6.778;2023-05-10T11:35:47;14.65;;;9.27;;
22829;SDS011;11581;51.250;6.778;2023-05-10T11:38:13;15.20;;;8.93;;
22829;SDS011;11581;51.250;6.778;2023-05-10T11:40:40;12.68;;;9.02;;
22829;SDS011;11581;51.250;6.778;2023-05-10T11:43:08;11.00;;;7.75;;
22829;SDS011;11581;51.250;6.778;2023-05-10T11:45:36;10.05;;;6.88;;
22829;SDS011;11581;51.250;6.778;2023-05-10T11:48:02;11.23;;;7.38;;
22829;SDS011;11581;51.250;6.778;2023-05-10T11:50:29;9.65;;;7.28;;
22829;SDS011;11581;51.250;6.778;2023-05-10T11:52:56;10.48;;;6.60;;
22829;SDS011;11581;51.250;6.778;2023-05-10T11:55:23;11.98;;;6.20;;
22829;SDS011;11581;51.250;6.778;2023-05-10T11:57:53;8.63;;;6.65;;
22829;SDS011;11581;51.250;6.778;2023-05-10T12:00:20;6.72;;;5.57;;
22829;SDS011;11581;51.250;6.778;2023-05-10T12:02:47;8.80;;;5.88;;
22829;SDS011;11581;51.250;6.778;2023-05-10T12:05:14;6.65;;;5.18;;
22829;SDS011;11581;51.250;6.778;2023-05-10T12:07:41;9.90;;;6.55;;
22829;SDS011;11581;51.250;6.778;2023-05-10T12:12:42;10.80;;;6.93;;
22829;SDS011;11581;51.250;6.778;2023-05-10T12:15:16;10.65;;;6.28;;
22829;SDS011;11581;51.250;6.778;2023-05-10T12:17:45;10.95;;;6.28;;
22829;SDS011;11581;51.250;6.778;2023-05-10T12:20:16;9.32;;;5.80;;
22829;SDS011;11581;51.250;6.778;2023-05-10T12:22:44;9.43;;;6.13;;
22829;SDS011;11581;51.250;6.778;2023-05-10T12:25:12;8.52;;;5.78;;
22829;SDS011;11581;51.250;6.778;2023-05-10T12:27:38;7.90;;;6.30;;
22829;SDS011;11581;51.250;6.778;2023-05-10T12:30:05;8.95;;;6.75;;
22829;SDS011;11581;51.250;6.778;2023-05-10T12:32:41;8.05;;;5.35;;
22829;SDS011;11581;51.250;6.778;2023-05-10T12:35:10;11.05;;;7.25;;
22829;SDS011;11581;51.250;6.778;2023-05-10T12:37:36;10.75;;;6.78;;
22829;SDS011;11581;51.250;6.778;2023-05-10T12:40:08;11.30;;;6.40;;
22829;SDS011;11581;51.250;6.778;2023-05-10T12:42:36;16.05;;;6.93;;
22829;SDS011;11581;51.250;6.778;2023-05-10T12:45:05;10.32;;;6.97;;
22829;SDS011;11581;51.250;6.778;2023-05-10T12:47:32;8.88;;;6.22;;
22829;SDS011;11581;51.250;6.778;2023-05-10T12:49:59;11.95;;;7.20;;
22829;SDS011;11581;51.250;6.778;2023-05-10T12:52:27;10.13;;;6.38;;
22829;SDS011;11581;51.250;6.778;2023-05-10T12:54:55;9.88;;;7.25;;
22829;SDS011;11581;51.250;6.778;2023-05-10T12:57:21;9.75;;;6.55;;
22829;SDS011;11581;51.250;6.778;2023-05-10T12:59:47;8.55;;;6.63;;
22829;SDS011;11581;51.250;6.778;2023-05-10T13:02:14;7.68;;;6.25;;
22829;SDS011;11581;51.250;6.778;2023-05-10T13:04:43;9.45;;;7.03;;
22829;SDS011;11581;51.250;6.778;2023-05-10T13:07:11;10.80;;;7.30;;
22829;SDS011;11581;51.250;6.778;2023-05-10T13:09:38;9.35;;;7.28;;
22829;SDS011;11581;51.250;6.778;2023-05-10T13:12:04;12.77;;;7.68;;
22829;SDS011;11581;51.250;6.778;2023-05-10T13:14:31;9.65;;;7.22;;
22829;SDS011;11581;51.250;6.778;2023-05-10T13:16:57;8.80;;;7.03;;
22829;SDS011;11581;51.250;6.778;2023-05-10T13:19:25;9.15;;;7.45;;
22829;SDS011;11581;51.250;6.778;2023-05-10T13:21:52;9.73;;;7.82;;
22829;SDS011;11581;51.250;6.778;2023-05-10T13:24:18;9.52;;;7.03;;
22829;SDS011;11581;51.250;6.778;2023-05-10T13:26:44;10.82;;;7.47;;
22829;SDS011;11581;51.250;6.778;2023-05-10T13:29:11;10.20;;;7.60;;
22829;SDS011;11581;51.250;6.778;2023-05-10T13:31:38;10.50;;;7.75;;
22829;SDS011;11581;51.250;6.778;2023-05-10T13:34:04;10.73;;;7.63;;
22829;SDS011;11581;51.250;6.778;2023-05-10T13:36:31;10.07;;;7.40;;
22829;SDS011;11581;51.250;6.778;2023-05-10T13:38:57;10.27;;;7.78;;
22829;SDS011;11581;51.250;6.778;2023-05-10T13:41:26;8.50;;;6.97;;
22829;SDS011;11581;51.250;6.778;2023-05-10T13:43:52;10.40;;;7.38;;
22829;SDS011;11581;51.250;6.778;2023-05-10T13:46:19;9.93;;;6.93;;
22829;SDS011;11581;51.250;6.778;2023-05-10T13:48:45;8.70;;;7.03;;
22829;SDS011;11581;51.250;6.778;2023-05-10T13:51:12;8.63;;;6.90;;
22829;SDS011;11581;51.250;6.778;2023-05-10T13:53:38;14.70;;;7.35;;
22829;SDS011;11581;51.250;6.778;2023-05-10T13:56:05;7.75;;;6.53;;
22829;SDS011;11581;51.250;6.778;2023-05-10T13:58:31;8.90;;;6.57;;
22829;SDS011;11581;51.250;6.778;2023-05-10T14:00:58;8.93;;;7.28;;
22829;SDS011;11581;51.250;6.778;2023-05-10T14:03:24;8.63;;;7.47;;
22829;SDS011;11581;51.250;6.778;2023-05-10T14:05:51;9.27;;;7.28;;
22829;SDS011;11581;51.250;6.778;2023-05-10T14:08:17;10.05;;;7.70;;
22829;SDS011;11581;51.250;6.778;2023-05-10T14:10:44;9.05;;;7.50;;
22829;SDS011;11581;51.250;6.778;2023-05-10T14:13:10;9.18;;;7.07;;
22829;SDS011;11581;51.250;6.778;2023-05-10T14:15:37;9.35;;;7.78;;
22829;SDS011;11581;51.250;6.778;2023-05-10T14:18:03;9.30;;;7.72;;
22829;SDS011;11581;51.250;6.778;2023-05-10T14:20:30;17.63;;;7.10;;
22829;SDS011;11581;51.250;6.778;2023-05-10T14:22:58;7.93;;;6.60;;
22829;SDS011;11581;51.250;6.778;2023-05-10T14:25:25;9.27;;;6.60;;
22829;SDS011;11581;51.250;6.778;2023-05-10T14:27:52;8.38;;;6.78;;
22829;SDS011;11581;51.250;6.778;2023-05-10T14:30:19;12.32;;;6.78;;
22829;SDS011;11581;51.250;6.778;2023-05-10T14:32:46;10.52;;;6.10;;
22829;SDS011;11581;51.250;6.778;2023-05-10T14:35:13;7.63;;;5.90;;
22829;SDS011;11581;51.250;6.778;2023-05-10T14:37:39;8.20;;;6.20;;
22829;SDS011;11581;51.250;6.778;2023-05-10T14:40:06;7.57;;;5.82;;
22829;SDS011;11581;51.250;6.778;2023-05-10T14:42:34;7.57;;;5.40;;
22829;SDS011;11581;51.250;6.778;2023-05-10T14:45:00;8.55;;;5.50;;
22829;SDS011;11581;51.250;6.778;2023-05-10T14:47:27;6.40;;;4.72;;
22829;SDS011;11581;51.250;6.778;2023-05-10T14:49:53;6.95;;;5.13;;
22829;SDS011;11581;51.250;6.778;2023-05-10T14:52:20;6.18;;;4.70;;
22829;SDS011;11581;51.250;6.778;2023-05-10T14:54:46;5.40;;;3.88;;
22829;SDS011;11581;51.250;6.778;2023-05-10T14:57:13;7.10;;;4.00;;
22829;SDS011;11581;51.250;6.778;2023-05-10T14:59:39;6.45;;;4.30;;
22829;SDS011;11581;51.250;6.778;2023-05-10T15:02:05;4.88;;;3.55;;
22829;SDS011;11581;51.250;6.778;2023-05-10T15:04:33;6.10;;;4.40;;
22829;SDS011;11581;51.250;6.778;2023-05-10T15:06:59;5.95;;;4.05;;
22829;SDS011;11581;51.250;6.778;2023-05-10T15:09:26;5.35;;;3.80;;
22829;SDS011;11581;51.250;6.778;2023-05-10T15:11:53;8.38;;;3.25;;
22829;SDS011;11581;51.250;6.778;2023-05-10T15:14:20;5.22;;;3.75;;
22829;SDS011;11581;51.250;6.778;2023-05-10T15:16:48;5.93;;;4.35;;
22829;SDS011;11581;51.250;6.778;2023-05-10T15:19:14;5.68;;;3.53;;
22829;SDS011;11581;51.250;6.778;2023-05-10T15:21:41;5.18;;;3.45;;
22829;SDS011;11581;51.250;6.778;2023-05-10T15:24:09;4.53;;;3.13;;
22829;SDS011;11581;51.250;6.778;2023-05-10T15:26:36;4.75;;;3.22;;
22829;SDS011;11581;51.250;6.778;2023-05-10T15:29:02;5.85;;;3.50;;
22829;SDS011;11581;51.250;6.778;2023-05-10T15:31:29;5.68;;;3.22;;
22829;SDS011;11581;51.250;6.778;2023-05-10T15:33:56;5.22;;;3.33;;
22829;SDS011;11581;51.250;6.778;2023-05-10T15:36:24;4.63;;;3.45;;
22829;SDS011;11581;51.250;6.778;2023-05-10T15:38:50;5.25;;;3.75;;
22829;SDS011;11581;51.250;6.778;2023-05-10T15:41:17;5.60;;;3.95;;
22829;SDS011;11581;51.250;6.778;2023-05-10T15:43:44;5.10;;;3.70;;
22829;SDS011;11581;51.250;6.778;2023-05-10T15:46:10;4.82;;;3.45;;